createdAt,value
2022-12-03T00:02:37.009Z,6.50
2022-12-03T00:07:40.226Z,6.50
2022-12-03T00:12:43.348Z,6.50
2022-12-03T00:17:47.856Z,6.50
2022-12-03T00:22:51.016Z,6.50
2022-12-03T00:27:54.086Z,6.50
2022-12-03T00:32:58.584Z,6.50
2022-12-03T00:38:01.727Z,6.40
2022-12-03T00:43:05.034Z,6.40
2022-12-03T00:48:09.512Z,6.40
2022-12-03T00:53:12.623Z,6.40
2022-12-03T00:58:15.691Z,6.40
2022-12-03T01:03:20.128Z,6.40
2022-12-03T01:08:23.213Z,6.40
2022-12-03T01:13:26.368Z,6.40
2022-12-03T01:18:31.086Z,6.40
2022-12-03T01:23:34.156Z,6.40
2022-12-03T01:28:37.248Z,6.50
2022-12-03T01:33:41.670Z,6.50
2022-12-03T01:38:44.760Z,6.50
2022-12-03T01:43:48.983Z,6.50
2022-12-03T01:48:55.701Z,6.50
2022-12-03T01:54:00.516Z,6.50
2022-12-03T01:59:03.628Z,6.40
2022-12-03T02:04:10.265Z,6.40
2022-12-03T02:09:14.068Z,6.40
2022-12-03T02:14:20.817Z,6.40
2022-12-03T02:19:27.840Z,6.30
2022-12-03T02:24:38.553Z,6.30
2022-12-03T02:29:43.044Z,6.20
2022-12-03T02:34:47.251Z,6.10
2022-12-03T02:39:54.905Z,6.00
2022-12-03T02:45:05.475Z,6.00
2022-12-03T02:50:10.954Z,6.00
2022-12-03T02:55:15.422Z,6.00
2022-12-03T03:00:23.008Z,5.90
2022-12-03T03:05:26.833Z,5.90
2022-12-03T03:10:30.787Z,5.90
2022-12-03T03:15:36.990Z,6.00
2022-12-03T03:20:40.282Z,6.10
2022-12-03T03:25:45.730Z,6.10
2022-12-03T03:30:50.276Z,6.10
2022-12-03T03:35:53.728Z,6.20
2022-12-03T03:41:00.733Z,6.20
2022-12-03T03:46:06.986Z,6.10
2022-12-03T03:51:11.728Z,6.10
2022-12-03T03:56:15.270Z,6.10
2022-12-03T04:01:20.192Z,6.20
2022-12-03T04:06:23.332Z,6.20
2022-12-03T04:11:43.644Z,6.20
2022-12-03T04:16:48.125Z,6.20
2022-12-03T04:22:08.789Z,6.10
2022-12-03T04:27:29.416Z,6.10
2022-12-03T04:32:51.245Z,6.10
2022-12-03T04:37:54.345Z,6.10
2022-12-03T04:42:57.468Z,6.20
2022-12-03T04:48:01.920Z,6.20
2022-12-03T04:53:04.987Z,6.10
2022-12-03T04:58:08.079Z,6.10
2022-12-03T05:03:12.540Z,6.00
2022-12-03T05:08:15.700Z,6.00
2022-12-03T05:13:18.824Z,6.00
2022-12-03T05:18:23.308Z,5.90
2022-12-03T05:23:26.499Z,5.90
2022-12-03T05:28:29.765Z,5.90
2022-12-03T05:33:36.420Z,5.90
2022-12-03T05:38:42.627Z,5.90
2022-12-03T05:43:45.800Z,5.90
2022-12-03T05:48:50.283Z,5.90
2022-12-03T05:53:53.334Z,5.80
2022-12-03T05:58:56.440Z,5.90
2022-12-03T06:04:01.127Z,5.90
2022-12-03T06:09:04.655Z,5.90
2022-12-03T06:14:07.729Z,5.80
2022-12-03T06:19:12.359Z,5.80
2022-12-03T06:24:15.449Z,5.70
2022-12-03T06:29:18.516Z,5.60
2022-12-03T06:34:22.956Z,5.50
2022-12-03T06:39:26.237Z,5.40
2022-12-03T06:44:29.754Z,5.40
2022-12-03T06:49:34.212Z,5.50
2022-12-03T06:54:37.284Z,5.50
2022-12-03T06:59:40.442Z,5.50
2022-12-03T07:04:46.546Z,5.60
2022-12-03T07:09:49.809Z,5.60
2022-12-03T07:14:53.314Z,5.60
2022-12-03T07:19:58.059Z,5.60
2022-12-03T07:25:01.156Z,5.60
2022-12-03T07:30:04.511Z,5.60
2022-12-03T07:35:10.207Z,5.60
2022-12-03T07:40:14.327Z,5.60
2022-12-03T07:45:17.491Z,5.60
2022-12-03T07:50:22.061Z,5.60
2022-12-03T07:55:25.385Z,5.60
2022-12-03T08:00:28.574Z,5.70
2022-12-03T08:05:33.124Z,5.70
2022-12-03T08:10:36.334Z,5.80
2022-12-03T08:15:39.822Z,5.80
2022-12-03T08:20:45.952Z,5.80
2022-12-03T08:25:49.841Z,5.80
2022-12-03T08:31:02.091Z,5.90
2022-12-03T08:36:13.626Z,5.80
2022-12-03T08:41:39.461Z,5.80
2022-12-03T08:46:42.543Z,5.70
2022-12-03T08:51:46.991Z,5.70
2022-12-03T08:56:50.075Z,5.70
2022-12-03T09:01:53.798Z,5.60
2022-12-03T09:06:59.284Z,5.60
2022-12-03T09:12:03.246Z,5.60
2022-12-03T09:17:07.115Z,5.60
2022-12-03T09:22:11.875Z,5.60
2022-12-03T09:27:15.053Z,5.70
2022-12-03T09:32:18.884Z,5.70
2022-12-03T09:37:23.676Z,5.70
2022-12-03T09:42:27.332Z,5.70
2022-12-03T09:47:31.865Z,5.70
2022-12-03T09:52:36.358Z,5.70
2022-12-03T09:57:39.567Z,5.70
2022-12-03T10:02:43.392Z,5.70
2022-12-03T10:07:48.643Z,5.70
2022-12-03T10:12:52.689Z,5.80
2022-12-03T10:17:56.818Z,5.80
2022-12-03T10:23:01.266Z,5.80
2022-12-03T10:28:05.495Z,5.80
2022-12-03T10:33:18.851Z,5.70
2022-12-03T10:38:24.494Z,5.70
2022-12-03T10:43:27.666Z,5.60
2022-12-03T10:48:31.027Z,5.60
2022-12-03T10:53:37.145Z,5.60
2022-12-03T10:58:41.482Z,5.60
2022-12-03T11:03:45.188Z,5.60
2022-12-03T11:08:57.542Z,5.60
2022-12-03T11:14:04.468Z,5.60
2022-12-03T11:19:17.373Z,5.60
2022-12-03T11:24:22.562Z,5.70
2022-12-03T11:29:58.559Z,5.80
2022-12-03T11:35:01.730Z,5.80
2022-12-03T11:40:32.450Z,5.90
2022-12-03T11:45:39.927Z,5.90
2022-12-03T11:50:45.194Z,6.00
2022-12-03T11:56:06.070Z,6.00
2022-12-03T12:01:10.079Z,6.00
2022-12-03T12:06:14.628Z,6.10
2022-12-03T12:11:20.882Z,6.10
2022-12-03T12:16:46.096Z,6.10
2022-12-03T12:21:50.128Z,6.10
2022-12-03T12:26:55.127Z,6.20
2022-12-03T12:32:07.923Z,6.10
2022-12-03T12:37:13.637Z,6.10
2022-12-03T12:42:32.099Z,6.10
2022-12-03T12:47:36.561Z,6.00
2022-12-03T12:52:48.822Z,6.00
2022-12-03T12:57:53.501Z,5.90
2022-12-03T13:02:59.450Z,5.90
2022-12-03T13:08:17.639Z,5.90
2022-12-03T13:13:26.129Z,6.00
2022-12-03T13:18:34.303Z,6.00
2022-12-03T13:23:39.063Z,6.00
2022-12-03T13:28:43.963Z,6.00
2022-12-03T13:33:47.108Z,5.90
2022-12-03T13:38:50.380Z,5.90
2022-12-03T13:43:54.949Z,5.80
2022-12-03T13:49:01.715Z,5.80
2022-12-03T13:54:08.431Z,5.70
2022-12-03T13:59:19.292Z,5.60
2022-12-03T14:04:42.452Z,5.70
2022-12-03T14:09:45.609Z,5.60
2022-12-03T14:14:50.043Z,5.60
2022-12-03T14:19:53.416Z,5.60
2022-12-03T14:24:57.150Z,5.60
2022-12-03T14:30:01.968Z,5.60
2022-12-03T14:35:09.861Z,5.60
2022-12-03T14:40:19.574Z,5.70
2022-12-03T14:45:27.645Z,5.80
2022-12-03T14:50:30.891Z,5.80
2022-12-03T14:55:33.987Z,5.70
2022-12-03T15:00:38.778Z,5.60
2022-12-03T15:05:41.908Z,5.60
2022-12-03T15:10:45.038Z,5.60
2022-12-03T15:15:50.088Z,5.50
2022-12-03T15:20:53.371Z,5.50
2022-12-03T15:25:56.547Z,5.50
2022-12-03T15:31:01.464Z,5.50
2022-12-03T15:36:04.813Z,5.60
2022-12-03T15:41:23.235Z,5.60
2022-12-03T15:46:28.464Z,5.60
2022-12-03T15:51:31.797Z,5.60
2022-12-03T15:56:37.691Z,5.70
2022-12-03T16:01:42.451Z,5.80
2022-12-03T16:06:45.609Z,5.80
2022-12-03T16:11:48.767Z,5.90
2022-12-03T16:16:53.240Z,6.00
2022-12-03T16:21:56.392Z,5.90
2022-12-03T16:26:59.496Z,5.90
2022-12-03T16:32:04.012Z,5.70
2022-12-03T16:37:07.876Z,5.60
2022-12-03T16:42:16.914Z,5.60
2022-12-03T16:47:22.255Z,5.60
2022-12-03T16:52:25.415Z,5.60
2022-12-03T16:57:33.400Z,5.60
2022-12-03T17:02:38.679Z,5.70
2022-12-03T17:07:41.925Z,5.70
2022-12-03T17:13:14.527Z,5.80
2022-12-03T17:18:10.213Z,5.70
2022-12-03T17:23:13.919Z,5.70
2022-12-03T17:28:17.057Z,5.60
2022-12-03T17:33:21.526Z,5.60
2022-12-03T17:38:24.781Z,5.50
2022-12-03T17:43:27.867Z,5.50
2022-12-03T17:48:32.382Z,5.40
2022-12-03T17:53:35.470Z,5.50
2022-12-03T17:58:38.529Z,5.50
2022-12-03T18:03:43.110Z,5.50
2022-12-03T18:08:46.286Z,5.50
2022-12-03T18:13:49.428Z,5.60
2022-12-03T18:18:57.059Z,5.60
2022-12-03T18:24:02.716Z,5.50
2022-12-03T18:29:05.953Z,5.50
2022-12-03T18:34:10.718Z,5.50
2022-12-03T18:39:24.936Z,5.50
2022-12-03T18:44:29.148Z,5.50
2022-12-03T18:49:33.638Z,5.60
2022-12-03T18:54:36.751Z,5.60
2022-12-03T18:59:40.650Z,5.60
2022-12-03T19:04:45.267Z,5.60
2022-12-03T19:09:48.419Z,5.50
2022-12-03T19:14:51.701Z,5.50
2022-12-03T19:19:57.094Z,5.50
2022-12-03T19:25:00.539Z,5.50
2022-12-03T19:30:03.663Z,5.50
2022-12-03T19:35:11.203Z,5.50
2022-12-03T19:40:15.085Z,5.50
2022-12-03T19:45:18.391Z,5.50
2022-12-03T19:50:23.713Z,5.60
2022-12-03T19:55:26.941Z,5.60
2022-12-03T20:00:30.079Z,5.60
2022-12-03T20:05:38.250Z,5.60
2022-12-03T20:10:41.449Z,5.60
2022-12-03T20:15:44.556Z,5.60
2022-12-03T20:20:49.128Z,5.70
2022-12-03T20:25:52.203Z,5.70
2022-12-03T20:30:59.239Z,5.80
2022-12-03T20:36:03.919Z,5.80
2022-12-03T20:41:09.385Z,5.80
2022-12-03T20:46:14.261Z,5.80
2022-12-03T20:51:21.164Z,5.80
2022-12-03T20:56:26.360Z,5.90
2022-12-03T21:01:29.811Z,5.90
2022-12-03T21:06:36.130Z,5.90
2022-12-03T21:11:42.240Z,5.90
2022-12-03T21:22:13.834Z,5.90
2022-12-03T21:27:21.647Z,6.00
2022-12-03T21:32:25.235Z,6.00
2022-12-03T21:37:29.759Z,6.00
2022-12-03T21:42:36.644Z,6.00
2022-12-03T21:47:40.755Z,6.10
2022-12-03T21:52:45.391Z,6.10
2022-12-03T21:57:48.743Z,6.10
2022-12-03T22:02:52.377Z,6.20
2022-12-03T22:07:57.025Z,6.20
2022-12-03T22:13:00.256Z,6.20
2022-12-03T22:18:04.225Z,6.30
2022-12-03T22:23:08.762Z,6.30
2022-12-03T22:28:14.093Z,6.20
2022-12-03T22:33:17.280Z,6.30
2022-12-03T22:38:21.887Z,6.30
2022-12-03T22:43:25.458Z,6.30
2022-12-03T22:48:28.739Z,6.30
2022-12-03T22:53:33.213Z,6.30
2022-12-03T22:58:38.553Z,6.30
2022-12-03T23:03:41.767Z,6.30
2022-12-03T23:08:46.624Z,6.30
2022-12-03T23:13:49.815Z,6.30
2022-12-03T23:18:53.140Z,6.30
2022-12-03T23:23:57.648Z,6.20
2022-12-03T23:29:00.698Z,6.30
2022-12-03T23:34:04.425Z,6.30
2022-12-03T23:39:09.079Z,6.20
2022-12-03T23:44:12.194Z,6.20
2022-12-03T23:49:15.297Z,6.20
2022-12-03T23:54:19.963Z,6.20
2022-12-03T23:59:23.067Z,6.30
